Date,TemperatureHighF,TemperatureAvgF,TemperatureLowF,DewpointHighF,DewpointAvgF,DewpointLowF,HumidityHigh,HumidityAvg,HumidityLow,PressureMaxIn,PressureMinIn,WindSpeedMaxMPH,WindSpeedAvgMPH,GustSpeedMaxMPH,PrecipitationSumIn
2012-1-1,77.2,63.6,51.4,59.3,53.6,49.4,94,73,40,30.23,30.09,7,0,12,0.00
2012-1-2,66.0,58.9,47.1,59.0,44.9,28.5,93,64,26,30.15,30.03,10,2,16,0.01
2012-1-3,48.6,41.9,33.7,30.3,14.7,-99.9,52,34,21,30.34,30.10,13,3,21,0.00
2012-1-4,57.0,42.2,30.0,32.3,23.7,17.5,73,50,27,30.39,30.24,4,0,7,0.00
2012-1-5,67.4,51.2,31.5,47.9,39.5,24.8,92,66,43,30.27,30.10,10,1,16,0.00
2012-1-6,70.4,56.6,43.3,56.0,47.0,40.6,94,73,39,30.19,30.07,7,0,10,0.00
2012-1-7,73.7,58.4,45.7,56.6,48.8,-99.9,94,73,41,30.16,30.06,4,0,7,0.00
2012-1-8,76.8,61.5,47.0,54.5,49.8,44.3,93,69,37,30.19,30.11,7,0,11,0.00
2012-1-9,76.1,63.5,51.7,61.5,55.2,49.4,96,77,49,30.19,30.05,5,0,10,0.00
2012-1-10,77.9,65.9,54.4,61.1,56.5,52.1,94,74,47,30.07,29.91,8,0,12,0.00
2012-1-11,73.5,66.0,60.9,65.2,59.8,-99.9,88,81,72,29.93,29.70,14,3,22,0.08
2012-1-12,76.3,65.3,53.6,60.2,56.4,51.3,94,75,51,29.89,29.78,8,1,14,0.00
2012-1-13,65.2,55.5,47.1,59.0,40.6,25.3,81,59,29,30.18,29.88,9,1,14,0.00
2012-1-14,56.0,46.1,37.8,35.3,27.2,18.2,76,50,24,30.32,30.16,8,1,17,0.00
2012-1-15,66.8,50.4,34.1,43.6,34.2,25.6,92,60,23,30.40,30.28,10,1,16,0.00
2012-1-16,69.1,56.0,42.9,51.5,45.7,38.3,85,70,46,30.42,30.29,11,1,19,0.00
2012-1-17,76.7,62.4,48.0,59.1,52.2,45.8,94,72,45,30.29,30.11,9,1,15,0.00
2012-1-18,77.2,63.8,53.1,60.9,56.1,49.1,94,78,49,30.11,29.91,11,1,17,0.01
2012-1-19,69.4,57.5,45.8,60.6,40.5,25.9,89,60,21,30.14,29.97,7,1,13,0.00
2012-1-20,76.7,60.1,43.5,54.0,47.3,40.8,93,67,34,30.15,30.07,8,1,13,0.00
2012-1-21,76.7,64.4,53.3,57.2,53.3,48.6,92,70,41,30.12,29.97,11,1,17,0.00
2012-1-22,78.6,64.0,50.7,60.7,53.6,44.6,95,73,31,30.10,30.01,9,1,14,0.00
2012-1-23,80.9,67.5,55.7,65.1,59.2,-99.9,95,77,47,30.12,30.00,8,0,12,0.01
2012-1-24,81.2,70.1,61.0,65.3,61.0,-99.9,94,75,40,30.15,30.05,5,1,10,0.00
2012-1-25,81.6,68.7,58.7,67.1,59.9,-99.9,96,76,41,30.15,30.05,10,1,14,0.00
2012-1-26,82.4,69.9,59.0,66.7,60.6,56.7,95,75,44,30.07,29.91,13,3,21,0.00
2012-2-11,67.4,58.7,46.7,59.7,44.3,-99.9,92,62,32,30.09,29.81,15,4,22,0.01
2012-2-12,50.4,41.0,31.3,30.6,21.2,-99.9,78,47,27,30.31,30.09,11,3,18,0.00
2012-2-13,66.6,49.0,32.7,45.9,34.9,25.3,87,62,33,30.24,30.07,7,1,10,0.00
2012-2-14,78.1,63.2,47.0,55.6,50.3,42.8,93,66,39,30.09,29.98,11,2,18,0.00
2012-2-15,81.4,70.2,58.4,62.3,57.4,-99.9,91,67,43,30.16,30.05,7,1,14,0.00
2012-2-16,82.6,72.3,64.7,64.0,60.9,58.5,87,69,45,30.14,29.99,11,1,18,0.00
2012-2-17,75.6,69.7,64.5,67.4,64.5,60.6,91,84,70,30.03,29.95,4,0,10,0.01
2012-2-18,79.6,70.3,65.5,65.9,64.0,62.1,95,82,56,29.98,29.84,6,0,13,0.00
2012-2-19,84.5,71.7,62.9,69.2,63.0,53.0,92,75,51,29.87,29.70,14,5,30,0.00
2012-2-20,66.0,58.2,51.4,53.7,48.1,-99.9,87,71,48,30.18,29.87,10,2,18,0.00
2012-2-21,75.4,62.9,49.2,56.5,50.0,45.0,92,67,35,30.20,30.07,7,0,11,0.00
2012-2-22,78.1,67.5,58.7,65.1,59.6,54.8,94,77,55,30.08,29.85,12,1,22,0.49
2012-2-23,84.3,74.1,65.3,69.7,65.8,59.9,94,77,52,29.91,29.82,8,2,18,0.00
2012-2-24,87.6,75.3,66.0,67.5,63.8,53.9,92,70,34,29.95,29.86,11,2,22,0.00
2012-2-25,72.5,62.1,53.8,67.7,40.6,25.2,87,48,22,30.23,29.95,10,3,17,0.00
2012-2-26,68.3,60.9,52.2,61.4,51.3,-99.9,88,71,53,30.30,30.21,11,1,19,0.00
2012-2-27,80.9,69.9,65.0,69.9,65.1,-99.9,95,86,62,30.27,30.16,11,0,21,0.04
2012-2-28,74.4,68.6,64.2,66.5,63.7,61.6,96,85,69,30.25,30.17,8,1,14,0.00
2012-2-29,85.3,73.8,64.7,69.1,64.3,58.5,97,75,41,30.19,30.03,8,1,13,0.00
2012-3-1,87.4,75.9,67.4,66.7,63.6,58.7,91,68,41,30.07,29.93,8,1,17,0.00
2012-3-2,85.3,73.8,63.2,66.8,61.4,-99.9,94,68,41,30.01,29.89,12,1,20,0.00
2012-3-3,87.8,76.8,67.6,68.7,63.4,-99.9,92,67,32,29.89,29.72,13,4,26,0.00
2012-3-4,75.4,63.0,51.1,69.1,42.5,-99.9,88,53,20,30.17,29.62,17,5,31,0.31
2012-3-5,75.8,60.2,42.1,48.4,35.4,-99.9,83,45,18,30.31,30.17,6,1,14,0.00
2012-3-6,73.9,63.8,53.5,53.8,50.7,-99.9,85,64,43,30.39,30.26,14,3,24,0.00
2012-3-7,76.7,68.3,60.7,62.3,56.1,50.8,88,66,47,30.37,30.26,13,3,21,0.00
2012-3-8,82.6,70.8,59.9,65.3,61.8,-99.9,94,75,46,30.26,30.12,11,2,19,0.01
2012-3-9,84.9,73.6,68.6,67.2,65.1,60.6,90,76,45,30.17,30.02,7,1,13,0.01
2012-3-10,77.6,69.9,66.3,66.7,64.9,-99.9,94,85,66,30.20,30.06,12,2,20,0.17
2012-3-11,70.9,68.0,66.8,66.5,63.6,-99.9,94,86,73,30.28,30.17,11,4,19,0.19
2012-3-12,67.9,64.8,61.5,59.8,58.0,56.7,86,79,74,30.26,30.21,7,1,12,0.00
2012-3-13,82.2,70.0,57.5,62.1,57.7,54.9,94,68,41,30.22,30.12,8,1,13,0.00
2012-3-14,82.2,69.7,59.3,63.9,59.7,-99.9,94,73,45,30.20,30.11,10,1,15,0.00
2012-3-15,82.6,70.9,61.6,66.8,61.6,58.0,94,74,45,30.22,30.13,11,2,17,0.00
2012-3-16,83.8,70.5,60.4,66.4,60.1,-99.9,94,72,39,30.20,30.10,10,1,15,0.00
2012-3-17,81.4,69.6,58.6,65.4,58.1,-99.9,95,70,39,30.21,30.10,10,1,15,0.01
2012-3-18,83.0,70.2,59.0,64.5,57.4,-99.9,94,68,30,30.22,30.11,9,1,13,0.00
2012-3-19,82.8,70.7,59.5,64.8,59.5,56.6,94,70,42,30.15,30.04,9,2,14,0.00
2012-3-20,83.0,71.7,62.0,65.5,60.5,55.9,93,70,41,30.09,30.01,12,3,19,0.00
2012-3-21,80.7,71.4,66.3,68.4,64.4,-99.9,93,80,57,30.12,30.03,12,2,20,0.08
2012-3-22,85.5,73.6,64.5,68.0,62.8,-99.9,95,72,43,30.14,30.02,10,2,15,0.01
2012-3-23,87.2,74.7,65.6,66.2,62.3,57.5,93,68,39,30.09,29.94,8,1,14,0.00
2012-3-24,87.0,75.2,66.4,67.9,63.8,60.0,89,69,43,29.99,29.83,9,1,15,0.03
2012-3-25,82.6,74.1,67.1,67.6,57.0,-99.9,88,60,26,29.88,29.75,10,2,18,0.03
2012-3-26,82.0,69.6,59.3,58.2,54.6,49.7,91,62,34,29.98,29.83,9,1,15,0.00
2012-3-27,67.8,60.3,56.9,60.7,56.5,54.3,92,88,76,30.07,29.97,3,0,4,0.00
2012-3-28,82.6,71.0,61.2,64.9,60.1,54.1,93,72,38,30.15,30.04,7,1,14,0.00
2012-4-11,74.4,70.4,67.9,59.9,58.7,57.5,74,67,56,29.97,29.91,4,0,9,0.00
2012-4-12,80.5,70.4,60.1,60.4,56.4,46.6,88,64,31,30.04,29.92,9,1,19,0.00
2012-4-13,85.5,72.1,62.7,63.0,57.7,44.5,87,64,25,30.12,30.00,10,1,17,0.00
2012-4-14,76.7,71.0,65.5,63.3,60.2,58.1,85,70,54,30.20,30.09,11,2,19,0.00
2012-4-15,82.0,71.4,60.9,59.9,57.5,52.9,88,63,41,30.19,30.12,10,2,15,0.00
2012-4-16,84.1,72.1,59.0,62.3,57.9,49.6,91,63,31,30.18,30.09,10,2,16,0.00
2012-4-17,84.5,72.4,60.2,62.1,57.6,53.1,92,63,36,30.14,30.01,10,2,14,0.00
2012-4-18,85.5,75.0,64.3,65.1,60.3,53.2,86,63,34,30.06,29.90,10,2,15,0.00
2012-4-19,84.1,75.0,67.9,68.0,64.8,61.1,89,72,48,29.94,29.84,8,1,14,0.00
2012-4-20,86.5,72.8,66.0,71.4,65.9,62.0,92,80,45,29.87,29.77,8,1,15,0.41
2012-4-21,80.7,71.1,65.6,67.3,64.8,62.7,94,82,56,29.83,29.55,13,2,21,0.12
2012-4-22,80.7,70.6,63.2,66.0,61.0,53.1,94,74,48,29.68,29.46,9,2,19,0.40
2012-4-23,73.3,64.7,56.5,53.1,40.2,-99.9,63,42,23,29.85,29.68,13,3,25,0.00
2012-4-24,73.9,62.2,50.1,42.8,33.5,24.3,60,37,18,29.99,29.85,10,1,17,0.00
2012-4-25,82.6,66.0,48.8,53.0,44.0,38.4,90,51,22,30.06,29.97,7,1,12,0.00
2012-9-24,86.5,76.5,68.9,65.9,61.2,53.8,82,61,34,30.06,29.97,4,0,11,0.00
2012-9-25,71.3,67.2,66.3,67.4,63.2,61.7,92,87,78,30.02,29.98,0,0,0,0.00
2012-9-26,91.2,79.3,69.1,75.0,69.7,57.6,96,75,34,30.07,29.99,6,0,13,0.01
2012-9-27,91.6,79.6,72.8,75.4,71.5,64.8,96,78,43,30.08,29.97,6,0,12,0.00
2012-9-28,88.2,78.0,72.7,74.9,72.2,70.3,95,83,57,30.02,29.90,3,0,10,0.14
2012-9-29,90.7,79.6,72.7,75.7,71.8,67.2,96,79,49,29.95,29.81,5,0,11,0.01
2012-9-30,90.3,81.1,73.7,74.5,72.0,-99.9,93,75,53,29.86,29.73,4,0,11,0.00
2012-10-1,89.9,79.2,74.2,76.5,73.3,71.0,95,83,56,29.79,29.68,11,0,18,1.04
2012-10-2,87.0,78.4,74.0,75.7,73.8,-99.9,96,87,63,29.99,29.76,9,2,15,0.24
2012-10-3,91.0,78.2,73.9,76.6,72.8,70.0,96,84,52,30.13,29.98,9,1,21,0.02
2012-10-4,90.5,78.8,73.0,78.5,72.8,70.2,95,83,57,30.15,30.02,9,0,16,0.74
2012-10-5,88.0,76.9,72.3,76.6,73.6,70.1,97,91,63,30.08,29.93,12,0,19,2.29
2012-10-6,90.7,77.8,73.5,77.6,73.4,69.9,98,88,53,29.94,29.84,8,0,17,0.97
2012-10-7,87.4,78.0,70.8,75.4,72.1,68.9,98,83,55,29.96,29.87,2,0,7,0.01
2012-10-8,85.3,77.5,73.3,75.5,73.1,71.2,95,87,64,29.99,29.89,2,0,6,0.08
2012-10-9,84.5,75.9,70.9,75.1,71.0,66.8,97,85,67,30.02,29.92,3,0,10,0.01
2012-10-10,84.5,74.2,67.6,68.3,65.2,58.8,93,76,44,30.07,29.99,3,0,7,0.00
2012-10-11,83.2,73.1,63.9,68.2,64.6,62.1,95,77,53,30.12,30.04,4,0,13,0.01
2012-10-12,83.6,73.2,64.8,68.3,62.3,54.8,92,71,39,30.15,30.06,4,0,12,0.00
2012-10-13,83.8,74.5,65.6,67.6,64.6,62.1,93,73,50,30.15,30.07,8,1,16,0.00
2012-10-14,85.5,76.2,67.9,70.5,67.4,65.2,93,76,55,30.09,29.98,7,0,16,0.00